createdAt,value
2022-11-29T00:01:21.915Z,18.77
2022-11-29T00:02:53.540Z,17.77
2022-11-29T00:04:24.839Z,18.03
2022-11-29T00:05:56.211Z,18.27
2022-11-29T00:07:27.596Z,18.23
2022-11-29T00:08:59.019Z,18.72
2022-11-29T00:10:30.432Z,18.86
2022-11-29T00:12:01.711Z,18.95
2022-11-29T00:13:33.105Z,19.26
2022-11-29T00:15:04.841Z,18.80
2022-11-29T00:16:36.098Z,19.09
2022-11-29T00:18:07.424Z,19.54
2022-11-29T00:19:38.649Z,19.93
2022-11-29T00:21:09.936Z,20.23
2022-11-29T00:22:41.247Z,20.19
2022-11-29T00:24:12.539Z,20.00
2022-11-29T00:25:43.905Z,19.76
2022-11-29T00:27:15.371Z,20.19
2022-11-29T00:28:46.747Z,19.71
2022-11-29T00:30:18.415Z,19.88
2022-11-29T00:31:50.205Z,19.15
2022-11-29T00:33:21.485Z,18.96
2022-11-29T00:34:52.994Z,18.49
2022-11-29T00:36:24.376Z,19.00
2022-11-29T00:37:55.653Z,18.36
2022-11-29T00:39:27.134Z,18.40
2022-11-29T00:40:58.501Z,18.44
2022-11-29T00:42:29.799Z,17.84
2022-11-29T00:44:01.068Z,18.39
2022-11-29T00:45:32.671Z,18.47
2022-11-29T00:47:04.331Z,17.91
2022-11-29T00:48:35.614Z,18.22
2022-11-29T00:50:07.040Z,17.84
2022-11-29T00:51:39.157Z,17.93
2022-11-29T00:53:10.420Z,18.05
2022-11-29T00:54:42.279Z,17.52
2022-11-29T00:56:13.813Z,17.66
2022-11-29T00:57:45.265Z,17.06
2022-11-29T00:59:16.953Z,16.68
2022-11-29T01:00:48.347Z,17.11
2022-11-29T01:02:20.081Z,17.06
2022-11-29T01:03:51.377Z,17.21
2022-11-29T01:05:22.865Z,17.06
2022-11-29T01:06:54.239Z,16.75
2022-11-29T01:08:25.616Z,17.06
2022-11-29T01:09:57.112Z,17.09
2022-11-29T01:11:28.409Z,17.38
2022-11-29T01:12:59.862Z,17.29
2022-11-29T01:14:31.035Z,16.87
2022-11-29T01:16:02.766Z,17.08
2022-11-29T01:17:34.028Z,16.88
2022-11-29T01:19:05.569Z,16.76
2022-11-29T01:20:36.779Z,16.73
2022-11-29T01:22:13.951Z,16.73
2022-11-29T01:23:45.241Z,16.82
2022-11-29T01:25:21.684Z,17.23
2022-11-29T01:26:52.995Z,16.62
2022-11-29T01:28:29.491Z,16.22
2022-11-29T01:30:00.757Z,16.10
2022-11-29T01:31:32.295Z,15.95
2022-11-29T01:33:04.775Z,15.63
2022-11-29T01:34:36.082Z,15.86
2022-11-29T01:36:07.644Z,15.15
2022-11-29T01:37:39.618Z,15.24
2022-11-29T01:39:10.980Z,13.96
2022-11-29T01:40:42.585Z,14.23
2022-11-29T01:42:28.846Z,13.42
2022-11-29T01:44:00.252Z,12.90
2022-11-29T01:45:31.633Z,12.32
2022-11-29T01:47:02.917Z,11.44
2022-11-29T01:48:34.250Z,11.29
2022-11-29T01:50:05.826Z,11.18
2022-11-29T01:51:37.577Z,11.23
2022-11-29T01:53:09.040Z,10.13
2022-11-29T01:54:50.599Z,10.38
2022-11-29T01:56:23.205Z,10.26
2022-11-29T01:57:54.575Z,10.59
2022-11-29T01:59:26.047Z,10.74
2022-11-29T02:00:57.673Z,10.90
2022-11-29T02:02:29.443Z,11.27
2022-11-29T02:04:01.671Z,11.00
2022-11-29T02:05:32.892Z,10.60
2022-11-29T02:07:04.351Z,10.94
2022-11-29T02:08:35.660Z,10.63
2022-11-29T02:10:06.909Z,10.63
2022-11-29T02:11:38.140Z,10.85
2022-11-29T02:13:09.525Z,10.69
2022-11-29T02:14:40.920Z,10.97
2022-11-29T02:16:12.321Z,10.79
2022-11-29T02:17:43.789Z,10.88
2022-11-29T02:19:15.278Z,11.50
2022-11-29T02:20:46.568Z,11.60
2022-11-29T02:22:17.844Z,12.16
2022-11-29T02:23:49.438Z,11.96
2022-11-29T02:25:20.740Z,11.84
2022-11-29T02:26:52.220Z,12.05
2022-11-29T02:28:23.522Z,11.98
2022-11-29T02:29:54.779Z,12.09
2022-11-29T02:31:31.101Z,12.51
2022-11-29T02:33:02.577Z,12.94
2022-11-29T02:34:33.953Z,13.29
2022-11-29T02:36:05.379Z,13.67
2022-11-29T02:37:36.607Z,13.90
2022-11-29T02:39:07.949Z,13.89
2022-11-29T02:40:39.356Z,14.17
2022-11-29T02:42:10.911Z,14.45
2022-11-29T02:43:42.421Z,14.49
2022-11-29T02:45:18.704Z,14.58
2022-11-29T02:46:49.982Z,14.49
2022-11-29T02:48:21.286Z,14.21
2022-11-29T02:49:52.546Z,14.34
2022-11-29T02:51:23.741Z,13.70
2022-11-29T02:52:55.122Z,14.30
2022-11-29T02:54:26.545Z,13.88
2022-11-29T02:55:57.975Z,14.30
2022-11-29T02:57:29.203Z,13.98
2022-11-29T02:59:00.559Z,14.52
2022-11-29T03:00:31.865Z,13.99
2022-11-29T03:02:03.108Z,14.32
2022-11-29T03:03:34.359Z,13.94
2022-11-29T03:05:05.816Z,14.12
2022-11-29T03:06:37.079Z,14.20
2022-11-29T03:08:08.358Z,13.88
2022-11-29T03:09:39.909Z,14.16
2022-11-29T03:11:11.215Z,14.45
2022-11-29T03:12:42.525Z,14.48
2022-11-29T03:14:13.894Z,14.21
2022-11-29T03:15:46.280Z,14.61
2022-11-29T03:17:18.290Z,14.06
2022-11-29T03:18:49.584Z,14.44
2022-11-29T03:20:20.979Z,14.21
2022-11-29T03:21:52.508Z,13.93
2022-11-29T03:23:23.823Z,14.92
2022-11-29T03:24:55.089Z,14.66
2022-11-29T03:26:26.373Z,14.98
2022-11-29T03:27:57.852Z,15.34
2022-11-29T03:29:29.237Z,15.11
2022-11-29T03:31:00.579Z,15.29
2022-11-29T03:32:31.801Z,15.35
2022-11-29T03:34:03.090Z,15.04
2022-11-29T03:35:34.388Z,16.06
2022-11-29T03:37:06.141Z,15.13
2022-11-29T03:38:37.766Z,13.82
2022-11-29T03:40:09.069Z,14.35
2022-11-29T03:41:40.376Z,14.35
2022-11-29T03:43:11.633Z,14.17
2022-11-29T03:44:43.002Z,13.66
2022-11-29T03:46:14.674Z,13.43
2022-11-29T03:47:46.137Z,13.73
2022-11-29T03:49:17.417Z,14.83
2022-11-29T03:50:48.718Z,15.48
2022-11-29T03:52:20.011Z,15.57
2022-11-29T03:53:51.367Z,15.05
2022-11-29T03:55:22.636Z,15.51
2022-11-29T03:56:54.024Z,15.46
2022-11-29T03:58:25.353Z,15.30
2022-11-29T03:59:57.034Z,15.63
2022-11-29T04:01:28.697Z,14.83
2022-11-29T04:03:00.139Z,15.43
2022-11-29T04:04:31.706Z,16.01
2022-11-29T04:06:02.958Z,15.54
2022-11-29T04:07:34.239Z,14.03
2022-11-29T04:09:05.851Z,17.26
2022-11-29T04:10:37.334Z,18.23
2022-11-29T04:12:09.053Z,17.38
2022-11-29T04:13:40.533Z,16.37
2022-11-29T04:15:15.305Z,14.92
2022-11-29T04:16:47.044Z,14.53
2022-11-29T04:18:18.555Z,15.90
2022-11-29T04:19:49.994Z,16.51
2022-11-29T04:21:21.471Z,14.44
2022-11-29T04:22:52.780Z,15.23
2022-11-29T04:24:24.181Z,15.58
2022-11-29T04:25:55.667Z,16.27
2022-11-29T04:27:27.286Z,15.66
2022-11-29T04:28:58.777Z,16.41
2022-11-29T04:30:29.999Z,16.14
2022-11-29T04:32:01.452Z,17.15
2022-11-29T04:33:32.909Z,16.96
2022-11-29T04:35:04.307Z,16.09
2022-11-29T04:36:35.820Z,15.73
2022-11-29T04:38:07.155Z,15.83
2022-11-29T04:39:38.904Z,16.48
2022-11-29T04:41:10.260Z,14.80
2022-11-29T04:42:42.110Z,15.90
2022-11-29T04:44:13.358Z,17.07
2022-11-29T04:45:44.584Z,17.16
2022-11-29T04:47:15.875Z,16.39
2022-11-29T04:48:47.195Z,16.23
2022-11-29T04:50:18.588Z,16.37
2022-11-29T04:51:49.886Z,17.36
2022-11-29T04:53:21.250Z,17.64
2022-11-29T04:54:52.560Z,18.97
2022-11-29T04:56:23.981Z,18.10
2022-11-29T04:57:55.379Z,18.07
2022-11-29T04:59:26.995Z,17.60
2022-11-29T05:00:58.565Z,19.36
2022-11-29T05:02:30.018Z,20.20
2022-11-29T05:04:01.460Z,19.16
2022-11-29T05:05:32.868Z,18.36
2022-11-29T05:07:04.580Z,19.72
2022-11-29T05:08:36.065Z,20.34
2022-11-29T05:10:07.408Z,19.41
2022-11-29T05:11:38.913Z,19.04
2022-11-29T05:13:10.256Z,19.21
2022-11-29T05:14:41.894Z,17.66
2022-11-29T05:16:13.287Z,18.70
2022-11-29T05:17:44.628Z,17.55
2022-11-29T05:19:16.356Z,17.76
2022-11-29T05:20:48.127Z,16.45
2022-11-29T05:22:19.441Z,15.45
2022-11-29T05:23:50.730Z,17.18
2022-11-29T05:25:22.111Z,16.09
2022-11-29T05:26:53.396Z,16.19
2022-11-29T05:28:24.890Z,16.10
2022-11-29T05:29:56.301Z,16.73
2022-11-29T05:31:27.717Z,16.68
2022-11-29T05:32:59.438Z,17.88
2022-11-29T05:34:34.917Z,17.29
2022-11-29T05:36:06.704Z,16.49
2022-11-29T05:37:38.015Z,16.94
2022-11-29T05:39:09.451Z,17.12
2022-11-29T05:40:40.679Z,17.58
2022-11-29T05:42:12.124Z,17.20
2022-11-29T05:43:43.497Z,17.80
2022-11-29T05:45:14.781Z,18.29
2022-11-29T05:46:46.712Z,19.05
2022-11-29T05:48:18.263Z,18.84
2022-11-29T05:49:49.508Z,19.41
2022-11-29T05:51:20.902Z,19.41
2022-11-29T05:52:52.289Z,19.33
2022-11-29T05:54:23.651Z,19.93
2022-11-29T05:55:55.002Z,20.10
2022-11-29T05:57:26.384Z,19.58
2022-11-29T05:58:58.214Z,20.60
2022-11-29T06:00:30.634Z,19.74
2022-11-29T06:02:02.049Z,20.02
2022-11-29T06:03:33.329Z,20.61
2022-11-29T06:05:04.585Z,21.92
2022-11-29T06:06:36.215Z,22.20
2022-11-29T06:10:01.628Z,21.63
2022-11-29T06:11:44.229Z,21.47
2022-11-29T06:13:15.745Z,21.93
2022-11-29T06:14:58.409Z,21.26
2022-11-29T06:16:29.942Z,22.34
2022-11-29T06:18:01.283Z,21.81
2022-11-29T06:19:32.667Z,21.33
2022-11-29T06:21:04.059Z,20.99
2022-11-29T06:22:35.464Z,21.37
2022-11-29T06:24:07.915Z,21.36
2022-11-29T06:25:44.845Z,21.93
2022-11-29T06:27:16.387Z,21.42
2022-11-29T06:28:47.755Z,22.22
2022-11-29T06:30:19.033Z,22.39
2022-11-29T06:31:55.372Z,22.24
2022-11-29T06:33:26.633Z,21.86
2022-11-29T06:35:03.213Z,22.28
2022-11-29T06:36:36.833Z,21.80
2022-11-29T06:38:08.364Z,20.74
2022-11-29T06:39:39.612Z,20.59
2022-11-29T06:41:11.094Z,20.11
2022-11-29T06:42:42.937Z,20.12
2022-11-29T06:44:14.343Z,20.56
2022-11-29T06:45:51.313Z,19.90
2022-11-29T06:47:22.637Z,20.31
2022-11-29T06:48:59.115Z,19.71
2022-11-29T06:50:33.231Z,18.54
2022-11-29T06:52:09.672Z,18.13
2022-11-29T06:53:40.995Z,18.66
2022-11-29T06:55:12.302Z,18.29
2022-11-29T06:56:44.131Z,17.99
2022-11-29T06:58:25.547Z,18.15
2022-11-29T06:59:57.067Z,17.58
2022-11-29T07:01:38.463Z,17.83
2022-11-29T07:03:09.990Z,17.43
2022-11-29T07:04:45.873Z,17.89
2022-11-29T07:06:17.761Z,16.70
2022-11-29T07:07:49.423Z,16.95
2022-11-29T07:09:25.837Z,16.02
2022-11-29T07:11:02.218Z,16.09
2022-11-29T07:12:33.708Z,16.04
2022-11-29T07:14:05.150Z,16.00
2022-11-29T07:15:36.829Z,16.81
2022-11-29T07:17:08.412Z,16.98
2022-11-29T07:18:39.727Z,16.27
2022-11-29T07:20:11.169Z,16.58
2022-11-29T07:21:42.538Z,16.92
2022-11-29T07:23:13.911Z,17.13
2022-11-29T07:24:45.556Z,16.54
2022-11-29T07:26:17.179Z,17.52
2022-11-29T07:27:48.482Z,16.86
2022-11-29T07:29:53.858Z,17.62
2022-11-29T07:32:05.860Z,17.58
2022-11-29T07:33:37.249Z,18.68
2022-11-29T07:35:08.502Z,18.21
2022-11-29T07:36:39.805Z,18.86
2022-11-29T07:38:11.277Z,18.75
2022-11-29T07:39:42.616Z,18.58
2022-11-29T07:41:14.045Z,18.46
2022-11-29T07:42:45.654Z,18.41
2022-11-29T07:44:16.916Z,18.40
2022-11-29T07:45:48.529Z,19.29
2022-11-29T07:47:20.226Z,19.04
2022-11-29T07:48:51.532Z,18.14
2022-11-29T07:50:22.950Z,19.00
2022-11-29T07:51:54.458Z,17.93
2022-11-29T07:53:25.843Z,18.92
2022-11-29T07:54:57.241Z,18.86
2022-11-29T07:56:28.775Z,18.01
2022-11-29T07:58:00.417Z,19.03
2022-11-29T07:59:31.769Z,18.75
2022-11-29T08:01:03.235Z,19.60
2022-11-29T08:02:34.750Z,19.00
2022-11-29T08:04:06.047Z,19.06
2022-11-29T08:05:37.251Z,19.55
2022-11-29T08:07:08.740Z,19.31
2022-11-29T08:08:43.941Z,19.97
2022-11-29T08:10:15.884Z,20.16
2022-11-29T08:11:47.330Z,19.62
2022-11-29T08:13:19.503Z,18.90
2022-11-29T08:14:50.906Z,18.96
2022-11-29T08:16:22.327Z,19.10
2022-11-29T08:17:53.717Z,18.88
2022-11-29T08:19:25.031Z,18.58
2022-11-29T08:20:56.362Z,19.74
2022-11-29T08:22:27.668Z,19.11
2022-11-29T08:23:59.077Z,18.87
2022-11-29T08:25:30.425Z,19.42
2022-11-29T08:27:01.670Z,19.06
2022-11-29T08:28:33.472Z,18.73
2022-11-29T08:30:04.765Z,18.31
2022-11-29T08:31:36.151Z,19.01
2022-11-29T08:33:07.403Z,19.10
2022-11-29T08:34:38.953Z,18.60
2022-11-29T08:36:10.339Z,18.51
2022-11-29T08:37:41.754Z,18.77
2022-11-29T08:39:13.245Z,18.78
2022-11-29T08:40:44.695Z,18.59
2022-11-29T08:42:15.974Z,19.19
2022-11-29T08:43:47.394Z,18.15
2022-11-29T08:45:18.670Z,19.34
2022-11-29T08:46:49.913Z,30.19
2022-11-29T08:48:21.250Z,19.58
2022-11-29T08:49:52.530Z,22.15
2022-11-29T08:51:23.934Z,19.47
2022-11-29T08:52:55.448Z,18.11
2022-11-29T08:54:26.755Z,18.32
2022-11-29T08:57:16.713Z,17.63
2022-11-29T08:59:14.366Z,18.36
2022-11-29T09:00:45.723Z,17.60
2022-11-29T09:04:39.572Z,17.52
2022-11-29T09:06:21.144Z,17.64
2022-11-29T09:07:58.109Z,17.25
2022-11-29T09:09:29.689Z,16.97
2022-11-29T09:11:00.975Z,17.00
2022-11-29T09:12:32.501Z,17.13
2022-11-29T09:14:03.945Z,16.83
2022-11-29T09:15:35.351Z,17.15
2022-11-29T09:17:06.824Z,16.08
2022-11-29T09:18:38.197Z,16.49
2022-11-29T09:20:09.549Z,17.13
2022-11-29T09:21:40.930Z,17.01
2022-11-29T09:23:12.219Z,17.48
2022-11-29T09:24:44.136Z,16.97
2022-11-29T09:26:15.709Z,16.65
2022-11-29T09:27:47.226Z,17.18
2022-11-29T09:29:18.747Z,17.39
2022-11-29T09:30:50.105Z,17.57
2022-11-29T09:32:21.588Z,17.26
2022-11-29T09:33:53.095Z,17.39
2022-11-29T09:35:29.505Z,17.21
2022-11-29T09:37:01.004Z,16.00
2022-11-29T09:38:37.425Z,16.61
2022-11-29T09:40:08.806Z,15.86
2022-11-29T09:41:42.946Z,16.89
2022-11-29T09:43:17.048Z,16.41
2022-11-29T09:44:48.813Z,16.50
2022-11-29T09:46:20.242Z,17.35
2022-11-29T09:47:51.781Z,17.94
2022-11-29T09:49:24.414Z,17.94
2022-11-29T09:50:55.925Z,17.12
2022-11-29T09:52:27.227Z,17.07
2022-11-29T09:53:58.538Z,17.89
2022-11-29T09:55:29.946Z,18.24
2022-11-29T09:57:03.868Z,18.48
2022-11-29T09:58:44.033Z,16.80
2022-11-29T10:00:35.306Z,16.49
2022-11-29T10:02:06.638Z,17.15
2022-11-29T10:03:38.034Z,17.23
2022-11-29T10:05:09.421Z,16.99
2022-11-29T10:06:51.123Z,17.03
2022-11-29T10:08:22.663Z,16.78
2022-11-29T10:09:54.154Z,16.19
2022-11-29T10:11:35.676Z,16.82
2022-11-29T10:13:07.145Z,17.31
2022-11-29T10:14:38.758Z,17.16
2022-11-29T10:16:10.222Z,16.87
2022-11-29T10:17:41.604Z,18.55
2022-11-29T10:19:13.173Z,17.76
2022-11-29T10:20:48.758Z,17.56
2022-11-29T10:22:20.667Z,18.70
2022-11-29T10:24:13.332Z,17.93
2022-11-29T10:25:45.626Z,18.06
2022-11-29T10:27:17.532Z,17.95
2022-11-29T10:28:49.596Z,18.34
2022-11-29T10:30:26.430Z,17.76
2022-11-29T10:31:58.714Z,18.12
2022-11-29T10:33:31.028Z,17.63
2022-11-29T10:35:02.393Z,17.97
2022-11-29T10:36:33.742Z,17.86
2022-11-29T10:38:31.156Z,18.69
2022-11-29T10:40:08.855Z,18.46
2022-11-29T10:41:40.323Z,18.87
2022-11-29T10:43:11.885Z,19.50
2022-11-29T10:44:43.687Z,18.97
2022-11-29T10:46:16.077Z,19.92
2022-11-29T10:47:48.021Z,20.01
2022-11-29T10:49:20.346Z,20.20
2022-11-29T10:50:51.662Z,20.12
2022-11-29T10:52:23.055Z,20.92
2022-11-29T10:53:54.788Z,20.92
2022-11-29T10:55:26.293Z,20.96
2022-11-29T10:56:57.654Z,21.53
2022-11-29T10:58:29.238Z,20.92
2022-11-29T11:00:00.832Z,19.85
2022-11-29T11:01:32.166Z,19.42
2022-11-29T11:03:03.546Z,19.25
2022-11-29T11:04:35.129Z,19.60
2022-11-29T11:06:06.464Z,19.73
2022-11-29T11:07:37.744Z,19.42
2022-11-29T11:09:09.506Z,19.90
2022-11-29T11:10:40.745Z,21.32
2022-11-29T11:12:12.136Z,20.69
2022-11-29T11:13:43.632Z,21.99
2022-11-29T11:15:14.986Z,22.26
2022-11-29T11:16:46.366Z,22.96
2022-11-29T11:18:17.765Z,23.34
2022-11-29T11:19:49.164Z,22.48
2022-11-29T11:21:20.618Z,23.98
2022-11-29T11:22:52.240Z,24.61
2022-11-29T11:24:23.925Z,25.90
2022-11-29T11:25:55.268Z,24.29
2022-11-29T11:27:26.695Z,24.01
2022-11-29T11:28:58.256Z,24.04
2022-11-29T11:30:29.761Z,23.55
2022-11-29T11:32:07.154Z,25.09
2022-11-29T11:33:38.574Z,25.68
2022-11-29T11:35:13.106Z,25.64
2022-11-29T11:36:48.802Z,26.45
2022-11-29T11:38:20.106Z,26.63
2022-11-29T11:39:51.667Z,26.49
2022-11-29T11:41:24.155Z,26.85
2022-11-29T11:42:56.604Z,26.47
2022-11-29T11:44:46.571Z,26.02
2022-11-29T11:46:28.898Z,27.12
2022-11-29T11:48:00.382Z,28.19
2022-11-29T11:49:31.976Z,26.25
2022-11-29T11:51:03.318Z,25.68
2022-11-29T11:52:39.618Z,25.19
2022-11-29T11:54:12.141Z,25.23
2022-11-29T11:55:43.374Z,24.37
2022-11-29T11:57:15.760Z,23.36
2022-11-29T11:58:47.213Z,24.30
2022-11-29T12:00:34.445Z,23.35
2022-11-29T12:02:24.747Z,22.12
2022-11-29T12:03:56.136Z,23.37
2022-11-29T12:05:27.558Z,21.98
2022-11-29T12:06:58.860Z,20.85
2022-11-29T12:08:41.630Z,21.22
2022-11-29T12:10:14.286Z,22.07
2022-11-29T12:11:45.915Z,21.77
2022-11-29T12:13:17.328Z,23.01
2022-11-29T12:14:48.756Z,23.51
2022-11-29T12:16:20.295Z,23.88
2022-11-29T12:17:51.693Z,23.64
2022-11-29T12:19:28.065Z,24.32
2022-11-29T12:20:59.371Z,25.09
2022-11-29T12:22:35.740Z,26.07
2022-11-29T12:24:07.116Z,27.10
2022-11-29T12:25:38.629Z,27.46
2022-11-29T12:27:10.132Z,26.70
2022-11-29T12:28:41.686Z,25.52
2022-11-29T12:30:13.233Z,26.39
2022-11-29T12:31:44.512Z,25.54
2022-11-29T12:33:16.048Z,26.64
2022-11-29T12:34:52.556Z,27.75
2022-11-29T12:36:24.053Z,27.19
2022-11-29T12:37:55.556Z,26.02
2022-11-29T12:39:27.092Z,25.27
2022-11-29T12:40:58.414Z,26.18
2022-11-29T12:42:29.692Z,27.01
2022-11-29T12:44:01.048Z,28.58
2022-11-29T12:45:32.496Z,29.21
2022-11-29T12:47:36.070Z,27.96
2022-11-29T12:49:08.472Z,28.96
2022-11-29T12:50:39.983Z,29.37
2022-11-29T12:52:28.062Z,29.45
2022-11-29T12:53:59.664Z,26.83
2022-11-29T12:55:31.052Z,27.99
2022-11-29T12:57:02.540Z,28.93
2022-11-29T12:58:33.855Z,29.95
2022-11-29T13:00:05.133Z,30.18
2022-11-29T13:01:36.676Z,30.77
2022-11-29T13:03:08.031Z,31.80
2022-11-29T13:04:39.621Z,31.18
2022-11-29T13:06:11.693Z,30.97
2022-11-29T13:07:43.016Z,31.57
2022-11-29T13:09:14.712Z,32.60
2022-11-29T13:10:46.808Z,32.90
2022-11-29T13:12:18.218Z,32.81
2022-11-29T13:13:49.654Z,34.01
2022-11-29T13:15:20.951Z,34.40
2022-11-29T13:19:10.073Z,33.45
2022-11-29T13:20:41.735Z,34.87
2022-11-29T13:22:13.379Z,32.80
2022-11-29T13:24:07.853Z,34.22
2022-11-29T13:25:54.506Z,35.10
2022-11-29T13:27:41.132Z,35.20
2022-11-29T13:29:12.795Z,34.91
2022-11-29T13:30:44.345Z,34.23
2022-11-29T13:32:16.151Z,36.27
2022-11-29T13:33:48.056Z,36.54
2022-11-29T13:35:19.747Z,36.67
2022-11-29T13:36:51.263Z,37.41
2022-11-29T13:38:22.834Z,36.40
2022-11-29T13:39:54.796Z,36.07
2022-11-29T13:41:26.886Z,33.01
2022-11-29T13:43:08.322Z,33.32
2022-11-29T13:44:40.258Z,33.22
2022-11-29T13:46:11.952Z,35.76
2022-11-29T13:47:43.385Z,35.88
2022-11-29T13:49:16.065Z,35.87
2022-11-29T13:50:47.598Z,34.00
2022-11-29T13:52:36.058Z,36.45
2022-11-29T13:54:07.793Z,37.24
2022-11-29T13:55:39.168Z,38.16
2022-11-29T13:57:11.059Z,36.59
2022-11-29T13:58:43.065Z,35.02
2022-11-29T14:00:22.083Z,35.39
2022-11-29T14:01:54.023Z,36.36
2022-11-29T14:03:25.825Z,36.10
2022-11-29T14:04:57.795Z,33.79
2022-11-29T14:06:29.830Z,34.65
2022-11-29T14:08:01.148Z,33.88
2022-11-29T14:10:07.735Z,35.26
2022-11-29T14:11:39.146Z,34.31
2022-11-29T14:13:10.449Z,34.72
2022-11-29T14:14:41.963Z,34.19
2022-11-29T14:16:13.465Z,34.65
2022-11-29T14:17:44.984Z,35.70
2022-11-29T14:19:34.190Z,35.34
2022-11-29T14:21:13.904Z,36.11
2022-11-29T14:22:50.553Z,35.12
2022-11-29T14:24:29.179Z,35.14
2022-11-29T14:26:28.021Z,35.29
2022-11-29T14:28:00.252Z,34.90
2022-11-29T14:29:31.780Z,34.98
2022-11-29T14:31:03.673Z,34.64
2022-11-29T14:32:47.584Z,33.89
2022-11-29T14:34:29.086Z,33.32
2022-11-29T14:36:05.408Z,33.04
2022-11-29T14:37:36.899Z,32.67
2022-11-29T14:39:08.491Z,32.77
2022-11-29T14:40:40.044Z,30.77
2022-11-29T14:42:11.301Z,31.39
2022-11-29T14:43:42.520Z,32.23
2022-11-29T14:45:13.904Z,32.18
2022-11-29T14:46:45.465Z,32.59
2022-11-29T14:48:34.381Z,32.54
2022-11-29T14:50:25.652Z,33.43
2022-11-29T14:51:56.933Z,32.64
2022-11-29T14:53:28.555Z,30.78
2022-11-29T14:54:59.997Z,31.78
2022-11-29T14:56:36.606Z,31.56
2022-11-29T14:58:08.173Z,31.97
2022-11-29T14:59:39.657Z,32.12
2022-11-29T15:01:11.517Z,30.98
2022-11-29T15:02:43.004Z,30.96
2022-11-29T15:04:14.653Z,31.48
2022-11-29T15:05:46.132Z,31.77
2022-11-29T15:07:17.490Z,31.34
2022-11-29T15:08:48.979Z,30.30
2022-11-29T15:10:20.248Z,29.89
2022-11-29T15:11:51.887Z,30.03
2022-11-29T15:13:33.443Z,29.68
2022-11-29T15:15:05.131Z,29.48
2022-11-29T15:16:36.930Z,28.49
2022-11-29T15:18:08.302Z,28.49
2022-11-29T15:19:39.799Z,29.01
2022-11-29T15:21:11.223Z,28.76
2022-11-29T15:22:42.964Z,28.64
2022-11-29T15:24:14.214Z,29.26
2022-11-29T15:25:46.342Z,28.34
2022-11-29T15:27:22.672Z,28.87
2022-11-29T15:28:55.531Z,29.43
2022-11-29T15:30:26.751Z,28.75
2022-11-29T15:31:58.977Z,28.81
2022-11-29T15:33:30.503Z,28.76
2022-11-29T15:35:01.945Z,28.81
2022-11-29T15:36:33.303Z,28.25
2022-11-29T15:38:04.511Z,29.69
2022-11-29T15:39:35.726Z,28.96
2022-11-29T15:41:07.241Z,29.11
2022-11-29T15:42:38.670Z,28.12
2022-11-29T15:44:10.126Z,27.88
2022-11-29T15:45:41.635Z,27.62
2022-11-29T15:47:13.125Z,28.16
2022-11-29T15:48:44.681Z,27.78
2022-11-29T15:50:30.364Z,27.10
2022-11-29T15:52:23.961Z,26.94
2022-11-29T15:54:11.310Z,27.64
2022-11-29T15:56:03.981Z,27.17
2022-11-29T15:57:45.307Z,26.45
2022-11-29T15:59:21.823Z,26.75
2022-11-29T16:00:53.352Z,27.26
2022-11-29T16:02:25.028Z,27.69
2022-11-29T16:03:56.488Z,26.54
2022-11-29T16:05:28.578Z,25.96
2022-11-29T16:06:59.913Z,25.11
2022-11-29T16:08:31.337Z,25.22
2022-11-29T16:10:15.920Z,26.47
2022-11-29T16:11:47.339Z,26.33
2022-11-29T16:13:25.030Z,26.11
2022-11-29T16:15:01.464Z,26.60
2022-11-29T16:16:33.024Z,27.52
2022-11-29T16:18:09.878Z,27.66
2022-11-29T16:19:41.275Z,27.35
2022-11-29T16:21:12.589Z,27.60
2022-11-29T16:22:45.308Z,27.30
2022-11-29T16:24:16.604Z,25.93
2022-11-29T16:25:47.855Z,25.12
2022-11-29T16:27:24.207Z,24.42
2022-11-29T16:28:55.591Z,24.48
2022-11-29T16:30:27.701Z,26.72
2022-11-29T16:32:32.948Z,27.70
2022-11-29T16:34:04.197Z,28.59
2022-11-29T16:35:45.635Z,28.66
2022-11-29T16:37:58.862Z,28.89
2022-11-29T16:39:42.676Z,28.64
2022-11-29T16:42:02.366Z,28.13
2022-11-29T16:43:39.560Z,27.64
2022-11-29T16:45:10.982Z,28.05
2022-11-29T16:46:42.279Z,27.31
2022-11-29T16:48:13.525Z,26.23
2022-11-29T16:49:44.747Z,25.37
2022-11-29T16:51:16.108Z,24.15
2022-11-29T16:53:29.920Z,23.55
2022-11-29T16:55:01.810Z,23.41
2022-11-29T16:56:33.253Z,23.77
2022-11-29T16:58:04.846Z,22.22
2022-11-29T16:59:36.321Z,22.84
2022-11-29T17:01:17.986Z,22.36
2022-11-29T17:02:49.341Z,21.77
2022-11-29T17:04:24.069Z,22.31
2022-11-29T17:06:11.649Z,22.48
2022-11-29T17:08:08.827Z,22.11
2022-11-29T17:09:45.663Z,22.21
2022-11-29T17:11:17.581Z,22.91
2022-11-29T17:12:54.675Z,22.68
2022-11-29T17:14:26.255Z,22.71
2022-11-29T17:15:58.111Z,20.88
2022-11-29T17:17:30.127Z,21.27
2022-11-29T17:19:01.746Z,21.65
2022-11-29T17:20:33.207Z,20.90
2022-11-29T17:22:04.749Z,21.15
2022-11-29T17:23:36.575Z,21.62
2022-11-29T17:25:08.415Z,20.30
2022-11-29T17:26:40.260Z,20.57
2022-11-29T17:28:11.909Z,20.99
2022-11-29T17:29:43.635Z,21.17
2022-11-29T17:31:15.650Z,20.01
2022-11-29T17:32:47.678Z,20.25
2022-11-29T17:34:20.041Z,19.14
2022-11-29T17:35:51.945Z,20.37
2022-11-29T17:37:23.486Z,19.69
2022-11-29T17:38:55.125Z,19.64
2022-11-29T17:40:26.582Z,20.81
2022-11-29T17:41:58.931Z,21.02
2022-11-29T17:43:30.525Z,20.61
2022-11-29T17:45:02.619Z,20.75
2022-11-29T17:46:34.084Z,21.61
2022-11-29T17:48:06.019Z,21.11
2022-11-29T17:49:37.546Z,21.28
2022-11-29T17:51:22.806Z,22.61
2022-11-29T17:55:38.116Z,21.31
2022-11-29T17:57:10.333Z,20.51
2022-11-29T17:58:41.856Z,22.21
2022-11-29T18:00:13.873Z,22.35
2022-11-29T18:01:45.646Z,21.86
2022-11-29T18:03:17.144Z,21.89
2022-11-29T18:04:53.781Z,22.28
2022-11-29T18:06:25.224Z,21.90
2022-11-29T18:07:56.627Z,22.61
2022-11-29T18:09:28.468Z,22.34
2022-11-29T18:11:00.020Z,23.05
2022-11-29T18:12:31.831Z,23.88
2022-11-29T18:14:03.705Z,24.29
2022-11-29T18:15:35.692Z,24.33
2022-11-29T18:17:07.430Z,24.34
2022-11-29T18:18:39.740Z,24.80
2022-11-29T18:20:11.658Z,23.84
2022-11-29T18:21:43.209Z,23.59
2022-11-29T18:23:14.959Z,23.06
2022-11-29T18:25:37.069Z,22.73
2022-11-29T18:27:09.762Z,22.11
2022-11-29T18:28:41.182Z,22.11
2022-11-29T18:30:12.656Z,21.92
2022-11-29T18:31:44.027Z,22.48
2022-11-29T18:33:15.268Z,22.46
2022-11-29T18:34:47.197Z,22.74
2022-11-29T18:36:52.282Z,23.18
2022-11-29T18:38:24.815Z,23.36
2022-11-29T18:39:57.648Z,26.51
2022-11-29T18:41:29.270Z,24.03
2022-11-29T18:43:12.597Z,26.98
2022-11-29T18:45:00.772Z,26.71
2022-11-29T18:46:33.428Z,25.61
2022-11-29T18:48:10.202Z,26.08
2022-11-29T18:49:42.038Z,25.55
2022-11-29T18:51:13.640Z,26.10
2022-11-29T18:52:44.972Z,26.71
2022-11-29T18:54:16.277Z,28.12
2022-11-29T18:55:47.588Z,25.29
2022-11-29T18:57:24.018Z,24.04
2022-11-29T18:58:58.242Z,23.90
2022-11-29T19:00:45.190Z,23.69
2022-11-29T19:02:32.121Z,22.91
2022-11-29T19:04:03.930Z,24.70
2022-11-29T19:05:35.734Z,28.05
2022-11-29T19:07:07.603Z,26.68
2022-11-29T19:08:45.198Z,24.31
2022-11-29T19:10:16.979Z,26.12
2022-11-29T19:11:48.983Z,26.47
2022-11-29T19:13:20.714Z,25.24
2022-11-29T19:14:52.710Z,26.13
2022-11-29T19:16:25.662Z,25.96
2022-11-29T19:17:57.569Z,30.34
2022-11-29T19:19:29.533Z,31.60
2022-11-29T19:21:01.043Z,30.83
2022-11-29T19:22:32.892Z,29.10
2022-11-29T19:24:04.736Z,28.44
2022-11-29T19:25:36.227Z,25.63
2022-11-29T19:27:07.908Z,25.33
2022-11-29T19:28:40.936Z,25.21
2022-11-29T19:30:12.663Z,25.14
2022-11-29T19:31:46.581Z,26.04
2022-11-29T19:33:19.452Z,24.89
2022-11-29T19:34:51.109Z,24.98
2022-11-29T19:36:22.791Z,25.21
2022-11-29T19:37:54.417Z,25.57
2022-11-29T19:39:36.937Z,25.98
2022-11-29T19:41:08.456Z,26.00
2022-11-29T19:42:40.415Z,26.16
2022-11-29T19:44:11.962Z,26.64
2022-11-29T19:45:45.056Z,26.43
2022-11-29T19:47:17.021Z,26.41
2022-11-29T19:48:48.677Z,25.92
2022-11-29T19:50:20.244Z,26.88
2022-11-29T19:51:57.584Z,27.52
2022-11-29T19:53:29.949Z,27.52
2022-11-29T19:55:01.808Z,27.84
2022-11-29T19:56:33.345Z,27.16
2022-11-29T19:58:04.767Z,26.97
2022-11-29T19:59:37.376Z,28.29
2022-11-29T20:01:08.723Z,28.18
2022-11-29T20:03:24.932Z,27.79
2022-11-29T20:04:56.801Z,28.89
2022-11-29T20:06:33.671Z,30.60
2022-11-29T20:08:05.400Z,38.34
2022-11-29T20:09:37.165Z,37.41
2022-11-29T20:11:09.157Z,36.29
2022-11-29T20:12:40.802Z,34.32
2022-11-29T20:14:12.159Z,33.18